Time;durP1;ratioP1;P1;durP2;ratioP2;P2;SDS_P1;SDS_P2;PMS_P1;PMS_P2;Temp;Humidity;BMP_temperature;BMP_pressure;BME280_temperature;BME280_humidity;BME280_pressure;Samples;Min_cycle;Max_cycle;Signal;HPM_P1;HPM_P2
2023/07/24 00:00:40;;;;;;;5.60;4.05;;;18.40;81.10;;;;;;5082969;28;20024;-79
2023/07/24 00:03:06;;;;;;;7.90;3.83;;;18.30;80.60;;;;;;5066333;28;20044;-81
2023/07/24 00:05:31;;;;;;;6.40;3.95;;;18.30;80.20;;;;;;5069817;28;20032;-82
2023/07/24 00:07:57;;;;;;;6.78;4.70;;;18.30;80.10;;;;;;5068317;28;20037;-84
2023/07/24 00:10:23;;;;;;;5.28;4.07;;;18.20;79.20;;;;;;5075766;28;20108;-80
2023/07/24 00:12:49;;;;;;;7.57;4.90;;;18.20;79.80;;;;;;5076130;28;20020;-78
2023/07/24 00:15:14;;;;;;;9.88;4.45;;;18.30;80.40;;;;;;5057999;28;20056;-82
2023/07/24 00:17:40;;;;;;;6.60;4.28;;;18.30;80.10;;;;;;5067965;28;20024;-81
2023/07/24 00:20:06;;;;;;;5.38;4.05;;;18.20;79.40;;;;;;5068626;28;20037;-81
2023/07/24 00:22:32;;;;;;;5.85;4.22;;;18.10;79.80;;;;;;5066242;28;20052;-80
2023/07/24 00:24:58;;;;;;;5.93;4.20;;;18.10;80.20;;;;;;5065151;28;20681;-82
2023/07/24 00:27:23;;;;;;;5.55;4.05;;;18.10;81.20;;;;;;5064359;28;20401;-82
2023/07/24 00:29:49;;;;;;;6.28;4.20;;;18.10;82.50;;;;;;5064014;28;20020;-81
2023/07/24 00:32:15;;;;;;;5.70;4.13;;;18.10;81.80;;;;;;5061531;28;20041;-80
2023/07/24 00:34:41;;;;;;;6.68;3.45;;;18.20;81.30;;;;;;5070741;28;20134;-79
2023/07/24 00:37:07;;;;;;;5.75;4.07;;;18.20;84.70;;;;;;5069894;28;20063;-80
2023/07/24 00:39:33;;;;;;;6.10;4.07;;;18.10;84.30;;;;;;5082617;28;20036;-81
2023/07/24 00:41:58;;;;;;;4.85;3.53;;;18.10;83.70;;;;;;5054068;28;20116;-80
2023/07/24 00:44:24;;;;;;;5.13;4.15;;;18.10;83.30;;;;;;5071832;28;20082;-79
2023/07/24 00:46:50;;;;;;;4.90;4.03;;;18.10;81.70;;;;;;5071663;28;20025;-82
2023/07/24 00:49:19;;;;;;;5.43;3.83;;;18.20;80.70;;;;;;5066320;28;20031;-80
2023/07/24 00:51:46;;;;;;;6.47;4.25;;;18.20;80.90;;;;;;5063163;28;20381;-81
2023/07/24 00:54:14;;;;;;;5.43;4.20;;;18.20;80.40;;;;;;5065997;28;20052;-81
2023/07/24 00:56:40;;;;;;;6.28;4.35;;;18.30;79.80;;;;;;5071224;28;20027;-82
2023/07/24 00:59:05;;;;;;;4.95;3.88;;;18.40;79.50;;;;;;5059581;28;20647;-79
2023/07/24 01:01:31;;;;;;;8.23;4.65;;;18.40;79.40;;;;;;5069449;28;20052;-81
2023/07/24 01:03:58;;;;;;;6.15;3.85;;;18.40;79.60;;;;;;5074570;28;20025;-82
2023/07/24 01:06:24;;;;;;;6.20;4.53;;;18.50;79.40;;;;;;5057666;28;20033;-78
2023/07/24 01:08:50;;;;;;;5.45;3.95;;;18.50;79.00;;;;;;5059758;28;20043;-80
2023/07/24 01:11:20;;;;;;;5.60;4.03;;;18.50;78.70;;;;;;5073282;28;20028;-81
2023/07/24 01:14:13;;;;;;;6.15;4.88;;;18.60;79.20;;;;;;5078282;28;20646;-82
2023/07/24 01:16:42;;;;;;;6.25;4.63;;;18.60;79.30;;;;;;5068549;28;20119;-78
2023/07/24 01:19:47;;;;;;;6.10;3.92;;;18.60;79.60;;;;;;5070316;28;20024;-82
2023/07/24 01:22:29;;;;;;;7.93;4.65;;;18.60;79.60;;;;;;5071335;28;20021;-78
2023/07/24 01:25:16;;;;;;;6.03;4.65;;;18.60;79.10;;;;;;5064754;28;20025;-80
2023/07/24 01:27:43;;;;;;;5.70;4.78;;;18.60;78.80;;;;;;5067240;28;20086;-81
2023/07/24 01:30:10;;;;;;;6.50;4.30;;;18.70;79.20;;;;;;5072372;28;20789;-79
2023/07/24 01:32:37;;;;;;;6.07;4.57;;;18.70;78.90;;;;;;5066260;28;20035;-80
2023/07/24 01:35:03;;;;;;;5.82;4.35;;;18.70;80.20;;;;;;5078152;28;20025;-79
2023/07/24 01:37:31;;;;;;;7.10;5.05;;;18.80;79.80;;;;;;5057236;28;20447;-79
2023/07/24 01:39:57;;;;;;;6.05;4.18;;;18.80;80.30;;;;;;5076581;28;20028;-79
2023/07/24 01:42:24;;;;;;;6.45;4.40;;;18.80;80.70;;;;;;5069938;28;20386;-82
2023/07/24 01:44:53;;;;;;;6.78;4.60;;;18.80;81.70;;;;;;5061978;28;20033;-80
2023/07/24 01:47:19;;;;;;;7.38;4.80;;;18.80;81.90;;;;;;5068454;28;20040;-82
2023/07/24 01:49:45;;;;;;;6.18;4.43;;;18.80;82.40;;;;;;5073559;28;20417;-80
2023/07/24 01:52:11;;;;;;;5.65;4.55;;;18.80;82.80;;;;;;5064429;28;20021;-78
2023/07/24 01:54:36;;;;;;;8.57;4.93;;;18.80;83.90;;;;;;5068971;28;20044;-80
2023/07/24 01:57:03;;;;;;;7.60;4.97;;;18.70;84.60;;;;;;5083751;28;20028;-82
2023/07/24 01:59:28;;;;;;;6.53;5.10;;;18.80;85.30;;;;;;5072375;28;20040;-83
2023/07/24 02:01:54;;;;;;;6.72;4.55;;;18.70;85.90;;;;;;5070053;28;20024;-81
2023/07/24 02:04:22;;;;;;;6.90;4.40;;;18.70;86.30;;;;;;5083005;28;20056;-81
2023/07/24 02:06:49;;;;;;;5.93;4.35;;;18.70;86.80;;;;;;5073473;28;20096;-81
2023/07/24 02:09:17;;;;;;;7.97;4.70;;;18.70;87.10;;;;;;5072944;28;20040;-82
2023/07/24 02:11:43;;;;;;;6.40;4.78;;;18.60;87.30;;;;;;5072919;28;20084;-81
2023/07/24 02:14:09;;;;;;;7.57;4.68;;;18.60;87.60;;;;;;5082048;28;20055;-81
2023/07/24 02:16:36;;;;;;;6.63;4.60;;;18.60;88.20;;;;;;5079866;28;20036;-82
2023/07/24 02:19:01;;;;;;;6.22;4.78;;;18.60;88.50;;;;;;5066115;28;20101;-82
2023/07/24 02:21:27;;;;;;;6.55;4.55;;;18.60;88.90;;;;;;5063476;28;20127;-80
2023/07/24 02:23:54;;;;;;;6.78;4.70;;;18.50;89.20;;;;;;5069214;28;20040;-80
2023/07/24 02:26:20;;;;;;;8.02;4.82;;;18.40;89.40;;;;;;5063158;28;20045;-82
2023/07/24 02:28:45;;;;;;;8.00;4.60;;;18.40;89.50;;;;;;5067954;28;20033;-81
2023/07/24 02:31:11;;;;;;;5.65;4.10;;;18.30;90.00;;;;;;5071962;28;20090;-81
2023/07/24 02:33:37;;;;;;;6.60;4.95;;;18.30;90.30;;;;;;5065756;28;20032;-80
2023/07/24 02:36:03;;;;;;;7.88;5.15;;;18.30;90.60;;;;;;5065361;28;20110;-81
2023/07/24 02:38:29;;;;;;;9.45;4.70;;;18.30;90.70;;;;;;5065006;28;20392;-83
2023/07/24 02:40:55;;;;;;;12.40;5.20;;;18.20;90.80;;;;;;5064353;28;20029;-81
2023/07/24 02:43:21;;;;;;;6.38;4.93;;;18.10;90.80;;;;;;5057283;28;20083;-81
2023/07/24 02:45:46;;;;;;;6.35;4.80;;;18.00;91.30;;;;;;5070179;28;20023;-82
2023/07/24 02:48:12;;;;;;;5.07;4.35;;;18.00;91.30;;;;;;5072349;28;20486;-82
2023/07/24 02:50:38;;;;;;;5.85;4.60;;;17.90;91.60;;;;;;5070015;28;20024;-79
2023/07/24 02:53:04;;;;;;;6.00;4.32;;;17.80;91.70;;;;;;5066002;28;20123;-81
2023/07/24 02:55:30;;;;;;;7.22;4.55;;;17.80;92.10;;;;;;5077080;28;20036;-82
2023/07/24 02:57:56;;;;;;;6.68;4.72;;;17.70;92.20;;;;;;5065981;28;20477;-81
2023/07/24 03:00:22;;;;;;;6.15;4.53;;;17.60;92.30;;;;;;5062443;28;20025;-79
2023/07/24 03:02:48;;;;;;;6.35;4.07;;;17.50;92.50;;;;;;5073537;28;20057;-81
2023/07/24 03:05:14;;;;;;;6.40;5.03;;;17.50;93.40;;;;;;5073185;28;20044;-80
2023/07/24 03:07:40;;;;;;;7.30;5.03;;;17.50;94.80;;;;;;5069516;28;20064;-80
2023/07/24 03:10:07;;;;;;;6.55;4.75;;;17.40;95.00;;;;;;5068773;28;20036;-82
2023/07/24 03:12:33;;;;;;;7.43;5.00;;;17.40;95.90;;;;;;5051529;28;20041;-82
2023/07/24 03:14:59;;;;;;;8.35;5.22;;;17.30;96.80;;;;;;5060224;28;20038;-81
2023/07/24 03:17:25;;;;;;;7.15;5.00;;;17.20;97.40;;;;;;5065962;28;20112;-80
2023/07/24 03:19:50;;;;;;;9.27;5.82;;;17.10;98.10;;;;;;5040974;28;20040;-82
2023/07/24 03:22:16;;;;;;;9.13;5.78;;;17.10;98.70;;;;;;5066636;28;20027;-83
2023/07/24 03:24:42;;;;;;;9.18;5.53;;;17.00;99.30;;;;;;5069332;28;20021;-82
2023/07/24 03:27:07;;;;;;;6.75;4.95;;;16.90;99.90;;;;;;5067507;28;20054;-80
2023/07/24 03:29:33;;;;;;;7.40;5.50;;;16.90;99.90;;;;;;5060025;28;20087;-81
2023/07/24 03:31:59;;;;;;;13.50;6.00;;;16.90;99.90;;;;;;5065742;28;20467;-81
2023/07/24 03:34:25;;;;;;;14.85;5.97;;;16.80;99.90;;;;;;5063406;28;20127;-79
2023/07/24 03:36:51;;;;;;;13.15;5.60;;;16.80;99.90;;;;;;5061717;28;20033;-80
2023/07/24 03:39:16;;;;;;;14.35;6.70;;;16.90;99.90;;;;;;5059146;28;20146;-81
2023/07/24 03:41:42;;;;;;;17.00;6.00;;;16.90;99.90;;;;;;5064212;28;20037;-82
2023/07/24 03:44:08;;;;;;;14.38;5.60;;;16.90;99.90;;;;;;5061885;28;20029;-82
2023/07/24 03:46:35;;;;;;;12.52;5.30;;;16.90;99.90;;;;;;5059358;28;20105;-79
2023/07/24 03:49:01;;;;;;;9.18;4.90;;;16.80;99.90;;;;;;5063335;28;20032;-81
2023/07/24 03:51:26;;;;;;;9.50;5.43;;;16.80;99.90;;;;;;5059957;28;20021;-81
2023/07/24 03:53:52;;;;;;;13.38;6.20;;;16.80;99.90;;;;;;5063920;28;20058;-80
2023/07/24 03:56:18;;;;;;;11.65;6.03;;;16.80;99.90;;;;;;5027212;28;20041;-80
2023/07/24 03:58:45;;;;;;;9.43;5.60;;;16.80;99.90;;;;;;5062685;28;20437;-79
2023/07/24 04:01:11;;;;;;;8.23;6.05;;;16.80;99.90;;;;;;5064054;28;20481;-80
2023/07/24 04:03:37;;;;;;;13.90;6.35;;;16.80;99.90;;;;;;5062307;28;20033;-82
2023/07/24 04:06:02;;;;;;;13.10;5.60;;;16.80;99.90;;;;;;5067939;28;20044;-81
2023/07/24 04:08:28;;;;;;;19.95;6.55;;;16.90;99.90;;;;;;5055364;28;20037;-81
2023/07/24 04:10:56;;;;;;;17.40;6.60;;;16.90;99.90;;;;;;5061160;28;20032;-81
2023/07/24 04:13:22;;;;;;;11.30;5.88;;;16.90;99.90;;;;;;5068455;28;20074;-80
2023/07/24 04:15:48;;;;;;;13.77;6.40;;;16.90;99.90;;;;;;5061956;28;20028;-80
2023/07/24 04:18:14;;;;;;;14.30;6.05;;;17.00;99.90;;;;;;5061368;28;20473;-82
2023/07/24 04:20:40;;;;;;;10.20;6.90;;;17.00;99.90;;;;;;5062005;28;20048;-81
2023/07/24 04:23:05;;;;;;;9.35;6.32;;;17.00;99.90;;;;;;5071231;28;20041;-81
2023/07/24 04:25:31;;;;;;;9.60;5.80;;;17.10;99.90;;;;;;5069202;28;20029;-80
2023/07/24 04:27:57;;;;;;;9.40;6.57;;;17.10;99.90;;;;;;5067739;28;20064;-81
2023/07/24 04:30:23;;;;;;;9.40;6.20;;;17.10;99.90;;;;;;5057967;28;20079;-80
2023/07/24 04:32:49;;;;;;;9.15;6.65;;;17.10;99.90;;;;;;5061885;28;20033;-78
2023/07/24 04:35:15;;;;;;;9.90;6.85;;;17.20;99.90;;;;;;5064509;28;20467;-80
2023/07/24 04:37:41;;;;;;;11.98;7.22;;;17.30;99.90;;;;;;5063081;28;20025;-81
2023/07/24 04:40:07;;;;;;;11.32;7.00;;;17.40;99.90;;;;;;5069495;28;20450;-81
2023/07/24 04:42:33;;;;;;;11.00;7.20;;;17.40;99.90;;;;;;5066224;28;20177;-82
2023/07/24 04:44:58;;;;;;;10.55;7.15;;;17.50;99.90;;;;;;5073156;28;20033;-81
2023/07/24 04:47:24;;;;;;;11.73;7.30;;;17.60;99.90;;;;;;5074701;28;20037;-82
2023/07/24 04:49:50;;;;;;;12.65;7.25;;;17.60;99.90;;;;;;5072628;28;20036;-82
2023/07/24 04:52:16;;;;;;;11.00;7.28;;;17.70;99.90;;;;;;5071213;28;20038;-80
2023/07/24 04:54:42;;;;;;;11.60;7.65;;;17.70;99.90;;;;;;5068168;28;20040;-79
2023/07/24 04:57:07;;;;;;;10.43;7.32;;;17.80;99.90;;;;;;5063730;28;20025;-80
2023/07/24 04:59:51;;;;;;;9.45;6.55;;;17.70;99.90;;;;;;5065862;28;20929;-82
2023/07/24 05:02:17;;;;;;;9.27;6.65;;;17.80;99.90;;;;;;5064710;28;20088;-80
2023/07/24 05:04:43;;;;;;;10.45;7.13;;;17.70;99.90;;;;;;5067626;28;20173;-82
2023/07/24 05:07:09;;;;;;;9.48;6.97;;;17.80;99.90;;;;;;5073687;28;20032;-81
2023/07/24 05:09:34;;;;;;;9.55;6.80;;;17.90;99.90;;;;;;5058559;28;20041;-81
2023/07/24 05:12:00;;;;;;;11.02;6.47;;;17.90;99.90;;;;;;5070054;28;20028;-81
2023/07/24 05:14:26;;;;;;;9.68;6.70;;;18.00;99.90;;;;;;5070402;28;20480;-80
2023/07/24 05:16:52;;;;;;;10.18;6.22;;;18.00;99.90;;;;;;5071783;28;20068;-83
2023/07/24 05:19:18;;;;;;;14.77;8.20;;;18.00;99.90;;;;;;5058750;28;20025;-83
2023/07/24 05:21:43;;;;;;;11.57;7.15;;;18.00;99.90;;;;;;5063727;28;20107;-81
2023/07/24 05:24:09;;;;;;;9.65;6.13;;;17.90;99.90;;;;;;5072965;28;20032;-85
2023/07/24 05:26:35;;;;;;;11.50;7.82;;;17.80;99.90;;;;;;5073652;28;20036;-84
2023/07/24 05:29:01;;;;;;;12.65;7.93;;;17.60;99.90;;;;;;5072422;28;20400;-83
2023/07/24 05:31:26;;;;;;;13.13;8.57;;;17.40;99.90;;;;;;5073110;28;20496;-86
2023/07/24 05:33:52;;;;;;;13.07;8.50;;;17.30;99.90;;;;;;5057582;28;20123;-83
2023/07/24 05:36:18;;;;;;;12.45;7.85;;;17.10;99.90;;;;;;5069640;28;20032;-88
2023/07/24 05:38:44;;;;;;;17.38;9.52;;;16.90;99.90;;;;;;5055113;28;20037;-87
2023/07/24 05:41:09;;;;;;;13.05;8.15;;;16.80;99.90;;;;;;5064813;28;20036;-86
2023/07/24 05:43:35;;;;;;;12.38;8.38;;;16.60;99.90;;;;;;5073540;28;20044;-84
2023/07/24 05:46:01;;;;;;;13.77;8.50;;;16.50;99.90;;;;;;5054439;28;20446;-86
2023/07/24 05:48:27;;;;;;;11.82;8.48;;;16.60;99.90;;;;;;5048335;28;20033;-83
2023/07/24 05:50:52;;;;;;;17.00;9.65;;;16.50;99.90;;;;;;5071853;28;20025;-85
2023/07/24 05:53:18;;;;;;;13.13;8.30;;;16.50;99.90;;;;;;5066313;28;20029;-87
2023/07/24 05:55:44;;;;;;;15.05;9.02;;;16.50;99.90;;;;;;5065833;28;20036;-87
2023/07/24 05:58:11;;;;;;;12.88;8.63;;;16.50;99.90;;;;;;5054935;28;20021;-85
2023/07/24 06:00:37;;;;;;;16.27;8.73;;;16.50;99.90;;;;;;5054235;28;20035;-84
2023/07/24 06:03:03;;;;;;;12.50;8.55;;;16.50;99.90;;;;;;5051661;28;20024;-84
2023/07/24 06:05:29;;;;;;;13.95;9.35;;;16.50;99.90;;;;;;5069442;28;20036;-86
2023/07/24 06:07:55;;;;;;;13.57;8.82;;;16.50;99.90;;;;;;5029390;28;20048;-85
2023/07/24 06:10:21;;;;;;;15.55;9.27;;;16.60;99.90;;;;;;5069729;28;20047;-84
2023/07/24 06:12:47;;;;;;;12.52;9.00;;;16.70;99.90;;;;;;5046334;28;20025;-84
2023/07/24 06:15:13;;;;;;;11.70;8.52;;;16.80;99.90;;;;;;5060330;28;20043;-87
2023/07/24 06:17:39;;;;;;;12.45;8.27;;;16.90;99.90;;;;;;5063053;28;20507;-87
2023/07/24 06:20:08;;;;;;;13.63;7.70;;;16.90;99.90;;;;;;5057496;28;20029;-88
2023/07/24 06:22:35;;;;;;;15.07;7.35;;;17.00;99.90;;;;;;5050417;28;20112;-87
2023/07/24 06:25:01;;;;;;;11.05;6.93;;;17.00;99.90;;;;;;5067528;28;20573;-84
2023/07/24 06:27:27;;;;;;;10.98;7.72;;;17.10;99.90;;;;;;5036716;28;20032;-88
2023/07/24 06:29:58;;;;;;;9.93;6.97;;;17.20;99.90;;;;;;5051118;28;20059;-84
2023/07/24 06:32:34;;;;;;;11.88;7.80;;;17.30;99.90;;;;;;5065899;28;20374;-88
2023/07/24 06:35:00;;;;;;;12.90;7.65;;;17.70;99.90;;;;;;5051422;28;20153;-84
2023/07/24 06:37:29;;;;;;;11.25;7.70;;;18.30;99.90;;;;;;5065357;28;20033;-88
2023/07/24 06:39:54;;;;;;;12.57;8.50;;;18.60;99.90;;;;;;5046291;28;20032;-86
2023/07/24 06:42:20;;;;;;;11.80;7.97;;;18.90;99.90;;;;;;5048848;28;20695;-86
2023/07/24 06:44:46;;;;;;;11.70;7.80;;;19.10;99.90;;;;;;5063506;28;20024;-85
2023/07/24 06:47:12;;;;;;;10.48;7.78;;;19.20;99.90;;;;;;5066587;28;20078;-85
2023/07/24 06:49:38;;;;;;;13.52;8.30;;;19.40;99.90;;;;;;5047819;28;20033;-87
2023/07/24 06:52:04;;;;;;;14.45;8.68;;;19.70;99.90;;;;;;5053387;28;20135;-86
2023/07/24 06:54:30;;;;;;;13.07;8.65;;;19.90;99.90;;;;;;5021650;28;20482;-87
2023/07/24 06:56:56;;;;;;;15.63;9.43;;;20.00;99.90;;;;;;5053027;28;20036;-86
2023/07/24 06:59:21;;;;;;;14.88;9.45;;;20.00;99.90;;;;;;5043400;28;20025;-85
2023/07/24 07:01:47;;;;;;;14.73;9.32;;;20.20;99.90;;;;;;5051160;28;20039;-85
2023/07/24 07:04:13;;;;;;;13.20;9.10;;;20.20;99.90;;;;;;5071568;28;20299;-85
2023/07/24 07:06:39;;;;;;;14.95;9.82;;;20.40;99.90;;;;;;5069032;28;20520;-84
2023/07/24 07:09:05;;;;;;;13.32;9.40;;;20.50;99.90;;;;;;5046277;28;20033;-82
2023/07/24 07:11:31;;;;;;;15.55;9.55;;;20.60;99.90;;;;;;5074064;28;20035;-84
2023/07/24 07:13:56;;;;;;;16.55;9.38;;;20.50;99.90;;;;;;5061993;28;20045;-84
2023/07/24 07:16:22;;;;;;;12.68;7.97;;;20.90;99.90;;;;;;5062499;28;20040;-85
2023/07/24 07:18:48;;;;;;;11.57;7.38;;;21.20;99.90;;;;;;5053162;28;20562;-81
2023/07/24 07:21:14;;;;;;;15.15;8.32;;;21.70;99.90;;;;;;5052106;28;20040;-83
2023/07/24 07:23:39;;;;;;;11.20;7.82;;;21.80;99.90;;;;;;5062826;28;20032;-82
2023/07/24 07:26:05;;;;;;;12.88;7.68;;;21.90;99.90;;;;;;5068765;28;20035;-82
2023/07/24 07:28:31;;;;;;;12.82;8.68;;;21.80;99.90;;;;;;5063378;28;20043;-83
2023/07/24 07:30:57;;;;;;;13.60;8.75;;;21.40;99.90;;;;;;5068907;28;20107;-82
2023/07/24 07:33:23;;;;;;;12.45;8.85;;;20.80;99.90;;;;;;5061512;28;20119;-82
2023/07/24 07:35:49;;;;;;;18.17;12.30;;;20.70;99.90;;;;;;5057883;28;20555;-84
2023/07/24 07:38:14;;;;;;;12.65;8.70;;;20.50;99.90;;;;;;5051343;28;20032;-80
2023/07/24 07:40:40;;;;;;;13.70;9.50;;;20.60;99.90;;;;;;5054550;28;20028;-81
2023/07/24 07:43:06;;;;;;;13.27;8.93;;;20.80;99.90;;;;;;5062694;28;20032;-81
2023/07/24 07:45:31;;;;;;;12.23;8.60;;;20.70;99.90;;;;;;5054208;28;20033;-82
2023/07/24 07:47:57;;;;;;;14.90;8.65;;;20.80;99.90;;;;;;5062240;28;20427;-83
2023/07/24 07:50:23;;;;;;;13.43;9.05;;;20.60;99.90;;;;;;5064320;28;20032;-80
2023/07/24 07:52:52;;;;;;;13.95;9.10;;;20.30;99.90;;;;;;5052609;28;20032;-81
2023/07/24 07:55:19;;;;;;;14.95;9.27;;;20.10;99.90;;;;;;5067292;28;20363;-82
2023/07/24 07:57:44;;;;;;;16.48;9.07;;;20.00;99.90;;;;;;5060842;28;20021;-82
2023/07/24 08:00:11;;;;;;;13.20;9.23;;;20.10;99.90;;;;;;5042145;28;20036;-79
2023/07/24 08:02:40;;;;;;;13.40;8.50;;;20.00;99.90;;;;;;5049605;28;20520;-82
2023/07/24 08:05:10;;;;;;;14.18;9.00;;;20.10;99.90;;;;;;5054449;28;20547;-83
2023/07/24 08:07:36;;;;;;;10.70;8.07;;;20.20;99.90;;;;;;5041388;28;20481;-85
2023/07/24 08:10:03;;;;;;;12.05;7.30;;;20.40;99.90;;;;;;5064248;28;20028;-80
2023/07/24 08:12:29;;;;;;;12.48;8.43;;;20.70;99.90;;;;;;5045318;28;20040;-80
2023/07/24 08:14:56;;;;;;;11.02;7.70;;;20.90;99.90;;;;;;5054438;28;20029;-80
2023/07/24 08:17:22;;;;;;;12.27;7.80;;;20.80;99.90;;;;;;5063976;28;20253;-79
2023/07/24 08:19:48;;;;;;;11.70;7.60;;;20.90;99.90;;;;;;5062455;28;20029;-79
2023/07/24 08:22:13;;;;;;;11.07;7.85;;;21.00;99.90;;;;;;5061258;28;20036;-79
2023/07/24 08:24:39;;;;;;;10.73;8.07;;;21.10;99.90;;;;;;5060289;28;20055;-80
2023/07/24 08:27:05;;;;;;;10.20;7.47;;;21.20;99.90;;;;;;5065778;28;20029;-81
2023/07/24 08:29:31;;;;;;;10.18;6.88;;;21.10;99.90;;;;;;5065601;28;20032;-83
2023/07/24 08:31:56;;;;;;;15.55;8.68;;;21.00;99.90;;;;;;5066622;28;20024;-82
2023/07/24 08:34:22;;;;;;;12.30;7.65;;;21.10;99.90;;;;;;5063221;28;20044;-83
2023/07/24 08:36:48;;;;;;;11.02;6.85;;;21.10;99.90;;;;;;5055686;28;20212;-83
2023/07/24 08:39:14;;;;;;;12.55;7.30;;;21.20;99.90;;;;;;5052120;28;20025;-84
2023/07/24 08:41:40;;;;;;;12.25;8.35;;;21.20;99.90;;;;;;5065385;28;20059;-83
2023/07/24 08:44:08;;;;;;;10.05;7.03;;;21.30;99.90;;;;;;5065928;28;20414;-82
2023/07/24 08:46:38;;;;;;;10.05;7.93;;;21.30;99.90;;;;;;5064948;28;20047;-82
2023/07/24 08:49:04;;;;;;;11.50;7.85;;;21.30;99.90;;;;;;5060819;28;20032;-82
2023/07/24 08:51:32;;;;;;;11.35;8.43;;;21.30;99.90;;;;;;5070118;28;20032;-83
2023/07/24 08:54:01;;;;;;;12.35;7.53;;;21.40;99.90;;;;;;5065468;28;20090;-84
2023/07/24 08:56:26;;;;;;;13.90;7.90;;;21.50;99.90;;;;;;5064365;28;20396;-84
2023/07/24 08:58:52;;;;;;;12.95;7.80;;;21.50;99.90;;;;;;5057692;28;20022;-84
2023/07/24 09:01:18;;;;;;;10.27;7.15;;;21.60;99.90;;;;;;5058613;28;20103;-84
2023/07/24 09:03:43;;;;;;;11.63;8.10;;;21.70;99.90;;;;;;5060312;28;20028;-83
2023/07/24 09:06:09;;;;;;;12.40;8.25;;;21.70;99.90;;;;;;5056097;28;20020;-85
2023/07/24 09:08:40;;;;;;;10.57;7.72;;;21.60;99.90;;;;;;5046142;28;20037;-81
2023/07/24 09:11:07;;;;;;;10.82;7.35;;;21.60;99.90;;;;;;5063975;28;20103;-83
2023/07/24 09:13:35;;;;;;;11.15;7.07;;;21.60;99.90;;;;;;5056301;28;20052;-84
2023/07/24 09:16:01;;;;;;;12.60;8.07;;;21.60;99.90;;;;;;5056253;28;20096;-83
2023/07/24 09:18:38;;;;;;;10.93;7.40;;;21.50;99.90;;;;;;5062662;28;20064;-84
2023/07/24 09:21:03;;;;;;;10.73;7.43;;;21.50;99.90;;;;;;5057717;28;20628;-84
2023/07/24 09:23:29;;;;;;;9.63;7.35;;;21.50;99.90;;;;;;5055191;28;20029;-84
2023/07/24 09:25:55;;;;;;;11.50;8.48;;;21.50;99.90;;;;;;5043313;28;20039;-83
2023/07/24 09:28:21;;;;;;;14.02;8.32;;;21.40;99.90;;;;;;5045836;28;20041;-82
2023/07/24 09:30:54;;;;;;;11.05;8.20;;;21.40;99.90;;;;;;5058725;28;20036;-84
2023/07/24 09:33:22;;;;;;;12.15;8.80;;;21.40;99.90;;;;;;5066124;28;20128;-80
2023/07/24 09:35:58;;;;;;;12.85;8.82;;;21.50;99.90;;;;;;5060938;28;20676;-82
2023/07/24 09:38:24;;;;;;;11.85;8.27;;;21.50;99.90;;;;;;5062734;28;20116;-81
2023/07/24 09:40:52;;;;;;;12.65;8.90;;;21.60;99.90;;;;;;5054836;28;20483;-82
2023/07/24 09:43:23;;;;;;;10.35;8.15;;;21.80;99.90;;;;;;5061774;28;20037;-80
2023/07/24 09:45:51;;;;;;;13.32;9.85;;;21.90;99.90;;;;;;5055241;28;20059;-81
2023/07/24 09:48:18;;;;;;;13.50;9.18;;;22.10;99.90;;;;;;5054907;28;20040;-82
2023/07/24 09:50:49;;;;;;;13.63;9.48;;;22.20;99.90;;;;;;5061258;28;20064;-80
2023/07/24 09:53:40;;;;;;;13.75;8.90;;;22.30;99.90;;;;;;5055305;28;20055;-81
2023/07/24 09:56:09;;;;;;;12.95;8.52;;;22.50;99.90;;;;;;5065121;28;20384;-81
2023/07/24 09:58:40;;;;;;;11.55;8.65;;;22.80;99.90;;;;;;5058328;28;20063;-80
2023/07/24 10:01:08;;;;;;;11.52;8.40;;;23.10;99.90;;;;;;5060097;28;20028;-82
2023/07/24 10:03:35;;;;;;;13.43;8.15;;;23.30;99.90;;;;;;5066128;28;20029;-80
2023/07/24 10:06:02;;;;;;;10.70;7.70;;;23.60;99.90;;;;;;5074352;28;20025;-82
2023/07/24 10:08:28;;;;;;;11.88;8.63;;;23.80;99.90;;;;;;5057414;28;20029;-82
2023/07/24 10:10:53;;;;;;;12.45;8.02;;;23.80;99.90;;;;;;5057809;28;20438;-81
2023/07/24 10:13:21;;;;;;;10.02;8.05;;;23.80;99.90;;;;;;5058768;28;20137;-80
2023/07/24 10:15:48;;;;;;;12.90;8.18;;;23.70;99.90;;;;;;5070376;28;20536;-83
2023/07/24 10:18:17;;;;;;;14.50;8.93;;;23.40;99.90;;;;;;5064272;28;20072;-82
2023/07/24 10:20:43;;;;;;;11.05;8.05;;;23.10;99.90;;;;;;5061898;28;20443;-81
2023/07/24 10:23:16;;;;;;;12.52;8.13;;;22.70;99.90;;;;;;5063045;28;20041;-83
2023/07/24 10:25:45;;;;;;;19.08;9.90;;;22.30;99.90;;;;;;5070043;28;20020;-86
2023/07/24 10:28:12;;;;;;;13.82;8.52;;;21.90;99.90;;;;;;5047962;28;20041;-85
2023/07/24 10:30:39;;;;;;;16.75;9.32;;;21.50;99.90;;;;;;5046708;28;20035;-85
2023/07/24 10:33:13;;;;;;;16.20;9.75;;;21.10;99.90;;;;;;5034747;28;20576;-85
2023/07/24 10:35:47;;;;;;;15.95;10.23;;;20.90;99.90;;;;;;5070322;28;20024;-86
2023/07/24 10:38:15;;;;;;;14.80;10.07;;;20.60;99.90;;;;;;5061053;28;20484;-86
2023/07/24 10:40:42;;;;;;;14.40;9.57;;;20.40;99.90;;;;;;5059944;28;20024;-87
2023/07/24 10:43:10;;;;;;;16.00;11.00;;;20.10;99.90;;;;;;5054713;28;20374;-85
2023/07/24 10:45:51;;;;;;;14.88;9.90;;;20.00;99.90;;;;;;5045282;28;20025;-86
2023/07/24 10:48:22;;;;;;;14.15;10.02;;;19.90;99.90;;;;;;5071724;28;20045;-85
2023/07/24 10:50:52;;;;;;;15.90;9.40;;;19.80;99.90;;;;;;5057254;28;20032;-86
2023/07/24 10:53:20;;;;;;;14.85;9.70;;;19.70;99.90;;;;;;5061393;28;20124;-87
2023/07/24 10:55:53;;;;;;;13.65;9.38;;;19.70;99.90;;;;;;5065288;28;20712;-86
2023/07/24 10:58:19;;;;;;;15.07;10.70;;;19.70;99.90;;;;;;5071960;28;20377;-85
2023/07/24 11:00:47;;;;;;;14.23;10.25;;;19.80;99.90;;;;;;5056156;28;20021;-86
2023/07/24 11:03:14;;;;;;;13.05;10.13;;;19.90;99.90;;;;;;5054216;28;20397;-85
2023/07/24 11:05:46;;;;;;;15.00;10.95;;;19.90;99.90;;;;;;5050351;28;20037;-86
2023/07/24 11:08:17;;;;;;;14.68;10.63;;;19.90;99.90;;;;;;5050189;28;20485;-86
2023/07/24 11:10:54;;;;;;;17.98;12.00;;;20.00;99.90;;;;;;5045761;28;20094;-84
2023/07/24 11:13:22;;;;;;;16.55;12.02;;;20.20;99.90;;;;;;5054935;28;20041;-86
2023/07/24 11:15:52;;;;;;;15.23;11.75;;;20.50;99.90;;;;;;5045220;28;20024;-84
2023/07/24 11:18:20;;;;;;;14.38;10.10;;;20.70;99.90;;;;;;5062930;28;20427;-85
2023/07/24 11:20:50;;;;;;;14.30;10.50;;;20.80;99.90;;;;;;5065731;28;20396;-85
2023/07/24 11:23:16;;;;;;;12.88;9.70;;;21.00;99.90;;;;;;5059559;28;20036;-84
2023/07/24 11:25:43;;;;;;;14.48;10.20;;;21.00;99.90;;;;;;5064281;28;20020;-85
2023/07/24 11:28:11;;;;;;;14.93;10.93;;;21.10;99.90;;;;;;5058658;28;20508;-85
2023/07/24 11:30:37;;;;;;;14.57;9.80;;;21.10;99.90;;;;;;5070310;28;20059;-84
2023/07/24 11:33:06;;;;;;;13.20;9.55;;;21.10;99.90;;;;;;5060906;28;20059;-85
2023/07/24 11:35:51;;;;;;;15.02;10.18;;;21.20;99.90;;;;;;5059673;28;20602;-84
2023/07/24 11:38:20;;;;;;;12.55;9.75;;;21.30;99.90;;;;;;5048412;28;20106;-85
2023/07/24 11:40:46;;;;;;;14.65;9.77;;;21.50;99.90;;;;;;5063743;28;20481;-83
2023/07/24 11:43:21;;;;;;;12.60;9.07;;;21.70;99.90;;;;;;5073134;28;20109;-83
2023/07/24 11:45:51;;;;;;;15.03;8.80;;;21.80;99.90;;;;;;5048141;28;20066;-84
2023/07/24 11:48:18;;;;;;;12.48;9.45;;;22.00;99.90;;;;;;5063082;28;20071;-85
2023/07/24 11:50:48;;;;;;;13.55;8.98;;;22.20;99.90;;;;;;5046812;28;20056;-84
2023/07/24 11:53:26;;;;;;;13.10;8.63;;;22.40;99.90;;;;;;5065445;28;20075;-84
2023/07/24 11:55:54;;;;;;;11.45;8.32;;;22.50;99.90;;;;;;5063733;28;20028;-85
2023/07/24 11:58:21;;;;;;;12.88;8.40;;;22.50;99.90;;;;;;5061400;28;20025;-85
2023/07/24 12:00:47;;;;;;;14.05;9.18;;;22.60;99.90;;;;;;5068220;28;20145;-84
2023/07/24 12:03:18;;;;;;;11.95;8.70;;;22.60;99.90;;;;;;5068243;28;20048;-84
2023/07/24 12:05:44;;;;;;;11.98;7.95;;;22.70;99.90;;;;;;5070826;28;20028;-82
2023/07/24 12:08:11;;;;;;;10.93;8.02;;;22.60;99.90;;;;;;5071280;28;20389;-83
2023/07/24 12:10:38;;;;;;;11.70;7.75;;;22.60;99.90;;;;;;5071224;28;20028;-82
2023/07/24 12:13:05;;;;;;;9.70;7.38;;;22.60;99.90;;;;;;5071609;28;20037;-83
2023/07/24 12:15:31;;;;;;;9.05;6.65;;;22.50;99.90;;;;;;5071093;28;20036;-82
2023/07/24 12:17:57;;;;;;;10.55;6.65;;;22.50;99.90;;;;;;5074272;28;20024;-83
2023/07/24 12:20:23;;;;;;;9.20;7.20;;;22.50;99.90;;;;;;5065242;28;20036;-82
2023/07/24 12:22:49;;;;;;;11.68;7.93;;;22.40;99.90;;;;;;5072238;28;20033;-83
2023/07/24 12:25:16;;;;;;;12.57;7.70;;;22.40;99.90;;;;;;5067849;28;20187;-84
2023/07/24 12:27:42;;;;;;;11.05;7.88;;;22.40;99.90;;;;;;5074252;28;20052;-82
2023/07/24 12:30:08;;;;;;;11.38;7.70;;;22.40;99.90;;;;;;5064250;28;20055;-80
2023/07/24 12:32:34;;;;;;;9.40;7.15;;;22.50;99.90;;;;;;5072718;28;20106;-80
2023/07/24 12:35:01;;;;;;;12.52;7.78;;;22.50;99.90;;;;;;5066609;28;20056;-82
2023/07/24 12:37:26;;;;;;;11.88;8.00;;;22.60;99.90;;;;;;5060071;28;20035;-82
2023/07/24 12:39:52;;;;;;;9.75;7.53;;;22.70;99.90;;;;;;5068189;28;20092;-83